sensor_id;sensor_type;location;lat;lon;timestamp;P1;durP1;ratioP1;P2;durP2;ratioP2
59008;SDS011;44794;42.652;23.318;2023-03-02T00:00:24;10.57;;;6.03;;
59008;SDS011;44794;42.652;23.318;2023-03-02T00:02:49;9.75;;;5.68;;
59008;SDS011;44794;42.652;23.318;2023-03-02T00:05:15;10.30;;;5.75;;
59008;SDS011;44794;42.652;23.318;2023-03-02T00:07:41;10.10;;;6.30;;
59008;SDS011;44794;42.652;23.318;2023-03-02T00:10:06;12.45;;;6.00;;
59008;SDS011;44794;42.652;23.318;2023-03-02T00:12:32;9.73;;;6.38;;
59008;SDS011;44794;42.652;23.318;2023-03-02T00:14:58;11.13;;;7.10;;
59008;SDS011;44794;42.652;23.318;2023-03-02T00:17:24;12.32;;;6.45;;
59008;SDS011;44794;42.652;23.318;2023-03-02T00:19:53;10.68;;;6.18;;
59008;SDS011;44794;42.652;23.318;2023-03-02T00:22:19;11.80;;;6.00;;
59008;SDS011;44794;42.652;23.318;2023-03-02T00:24:44;9.88;;;5.68;;
59008;SDS011;44794;42.652;23.318;2023-03-02T00:27:10;9.60;;;5.28;;
59008;SDS011;44794;42.652;23.318;2023-03-02T00:29:35;9.55;;;5.63;;
59008;SDS011;44794;42.652;23.318;2023-03-02T00:32:01;9.82;;;5.55;;
59008;SDS011;44794;42.652;23.318;2023-03-02T00:34:28;10.35;;;5.60;;
59008;SDS011;44794;42.652;23.318;2023-03-02T00:36:56;9.50;;;5.47;;
59008;SDS011;44794;42.652;23.318;2023-03-02T00:39:22;9.10;;;5.47;;
59008;SDS011;44794;42.652;23.318;2023-03-02T00:41:48;8.00;;;4.80;;
59008;SDS011;44794;42.652;23.318;2023-03-02T00:44:14;8.10;;;4.63;;
59008;SDS011;44794;42.652;23.318;2023-03-02T00:46:41;7.97;;;4.88;;
59008;SDS011;44794;42.652;23.318;2023-03-02T00:49:08;7.47;;;4.20;;
59008;SDS011;44794;42.652;23.318;2023-03-02T00:51:34;6.35;;;4.15;;
59008;SDS011;44794;42.652;23.318;2023-03-02T00:53:59;8.55;;;4.53;;
59008;SDS011;44794;42.652;23.318;2023-03-02T00:56:26;8.38;;;4.25;;
59008;SDS011;44794;42.652;23.318;2023-03-02T00:58:52;8.35;;;4.57;;
59008;SDS011;44794;42.652;23.318;2023-03-02T01:01:17;7.25;;;4.93;;
59008;SDS011;44794;42.652;23.318;2023-03-02T01:03:43;7.25;;;4.72;;
59008;SDS011;44794;42.652;23.318;2023-03-02T01:06:15;9.77;;;4.78;;
59008;SDS011;44794;42.652;23.318;2023-03-02T01:08:42;7.03;;;4.53;;
59008;SDS011;44794;42.652;23.318;2023-03-02T01:11:14;8.30;;;4.55;;
59008;SDS011;44794;42.652;23.318;2023-03-02T01:13:42;7.45;;;4.57;;
59008;SDS011;44794;42.652;23.318;2023-03-02T01:16:08;7.03;;;4.68;;
59008;SDS011;44794;42.652;23.318;2023-03-02T01:18:34;10.20;;;4.43;;
59008;SDS011;44794;42.652;23.318;2023-03-02T01:21:09;6.75;;;4.57;;
59008;SDS011;44794;42.652;23.318;2023-03-02T01:23:36;6.40;;;4.32;;
59008;SDS011;44794;42.652;23.318;2023-03-02T01:26:02;5.95;;;4.25;;
59008;SDS011;44794;42.652;23.318;2023-03-02T01:28:27;7.13;;;4.43;;
59008;SDS011;44794;42.652;23.318;2023-03-02T01:30:53;6.72;;;4.47;;
59008;SDS011;44794;42.652;23.318;2023-03-02T01:33:18;5.50;;;3.85;;
59008;SDS011;44794;42.652;23.318;2023-03-02T01:35:45;6.43;;;4.22;;
59008;SDS011;44794;42.652;23.318;2023-03-02T01:38:10;5.93;;;3.78;;
59008;SDS011;44794;42.652;23.318;2023-03-02T01:40:36;6.22;;;4.03;;
59008;SDS011;44794;42.652;23.318;2023-03-02T01:43:01;7.00;;;3.88;;
59008;SDS011;44794;42.652;23.318;2023-03-02T01:45:48;5.70;;;3.78;;
59008;SDS011;44794;42.652;23.318;2023-03-02T01:48:25;5.53;;;3.63;;
59008;SDS011;44794;42.652;23.318;2023-03-02T01:50:54;5.50;;;3.50;;
59008;SDS011;44794;42.652;23.318;2023-03-02T01:53:22;6.22;;;3.55;;
59008;SDS011;44794;42.652;23.318;2023-03-02T01:55:50;5.63;;;3.30;;
59008;SDS011;44794;42.652;23.318;2023-03-02T01:58:17;5.35;;;3.13;;
59008;SDS011;44794;42.652;23.318;2023-03-02T02:00:43;5.28;;;3.42;;
59008;SDS011;44794;42.652;23.318;2023-03-02T02:03:12;6.22;;;3.15;;
59008;SDS011;44794;42.652;23.318;2023-03-02T02:05:51;5.55;;;3.17;;
59008;SDS011;44794;42.652;23.318;2023-03-02T02:08:24;3.58;;;2.75;;
59008;SDS011;44794;42.652;23.318;2023-03-02T02:10:50;4.13;;;2.90;;
59008;SDS011;44794;42.652;23.318;2023-03-02T02:13:17;5.38;;;3.08;;
59008;SDS011;44794;42.652;23.318;2023-03-02T02:15:44;4.88;;;3.10;;
59008;SDS011;44794;42.652;23.318;2023-03-02T02:18:10;5.03;;;2.95;;
59008;SDS011;44794;42.652;23.318;2023-03-02T02:20:36;4.00;;;3.00;;
59008;SDS011;44794;42.652;23.318;2023-03-02T02:28:40;3.92;;;2.83;;
59008;SDS011;44794;42.652;23.318;2023-03-02T02:33:39;5.45;;;2.80;;
59008;SDS011;44794;42.652;23.318;2023-03-02T02:36:09;5.50;;;2.92;;
59008;SDS011;44794;42.652;23.318;2023-03-02T02:38:39;5.43;;;3.35;;
59008;SDS011;44794;42.652;23.318;2023-03-02T02:41:06;4.65;;;3.20;;
59008;SDS011;44794;42.652;23.318;2023-03-02T02:43:42;4.97;;;3.40;;
59008;SDS011;44794;42.652;23.318;2023-03-02T02:46:07;6.75;;;3.58;;
59008;SDS011;44794;42.652;23.318;2023-03-02T02:48:35;6.20;;;3.90;;
59008;SDS011;44794;42.652;23.318;2023-03-02T02:51:01;7.18;;;3.75;;
59008;SDS011;44794;42.652;23.318;2023-03-02T02:54:13;7.75;;;4.45;;
59008;SDS011;44794;42.652;23.318;2023-03-02T02:56:35;5.55;;;3.45;;
59008;SDS011;44794;42.652;23.318;2023-03-02T02:59:08;7.38;;;3.83;;
59008;SDS011;44794;42.652;23.318;2023-03-02T03:01:41;7.03;;;3.88;;
59008;SDS011;44794;42.652;23.318;2023-03-02T03:04:09;7.10;;;4.15;;
59008;SDS011;44794;42.652;23.318;2023-03-02T03:06:38;7.57;;;3.80;;
59008;SDS011;44794;42.652;23.318;2023-03-02T03:09:15;9.43;;;4.53;;
59008;SDS011;44794;42.652;23.318;2023-03-02T03:11:41;8.43;;;4.50;;
59008;SDS011;44794;42.652;23.318;2023-03-02T03:14:09;7.15;;;4.30;;
59008;SDS011;44794;42.652;23.318;2023-03-02T03:16:38;8.75;;;4.90;;
59008;SDS011;44794;42.652;23.318;2023-03-02T03:19:07;8.15;;;4.55;;
59008;SDS011;44794;42.652;23.318;2023-03-02T03:21:34;7.80;;;4.47;;
59008;SDS011;44794;42.652;23.318;2023-03-02T03:24:00;7.65;;;4.15;;
59008;SDS011;44794;42.652;23.318;2023-03-02T03:26:25;8.98;;;4.35;;
59008;SDS011;44794;42.652;23.318;2023-03-02T03:28:51;7.00;;;3.95;;
59008;SDS011;44794;42.652;23.318;2023-03-02T03:31:16;5.22;;;3.50;;
59008;SDS011;44794;42.652;23.318;2023-03-02T03:33:42;6.65;;;3.70;;
59008;SDS011;44794;42.652;23.318;2023-03-02T03:36:08;6.65;;;4.03;;
59008;SDS011;44794;42.652;23.318;2023-03-02T03:38:33;6.03;;;3.70;;
59008;SDS011;44794;42.652;23.318;2023-03-02T03:40:59;6.65;;;4.10;;
59008;SDS011;44794;42.652;23.318;2023-03-02T03:43:24;5.93;;;3.67;;
59008;SDS011;44794;42.652;23.318;2023-03-02T03:45:49;6.18;;;3.22;;
59008;SDS011;44794;42.652;23.318;2023-03-02T03:48:16;6.78;;;3.85;;
59008;SDS011;44794;42.652;23.318;2023-03-02T03:50:41;5.93;;;3.53;;
59008;SDS011;44794;42.652;23.318;2023-03-02T03:53:06;6.10;;;3.67;;
59008;SDS011;44794;42.652;23.318;2023-03-02T03:55:32;6.05;;;3.63;;
59008;SDS011;44794;42.652;23.318;2023-03-02T03:57:58;6.13;;;3.70;;
59008;SDS011;44794;42.652;23.318;2023-03-02T04:00:23;6.70;;;3.88;;
59008;SDS011;44794;42.652;23.318;2023-03-02T04:02:49;5.60;;;3.33;;
59008;SDS011;44794;42.652;23.318;2023-03-02T04:05:15;6.32;;;3.92;;
59008;SDS011;44794;42.652;23.318;2023-03-02T04:07:41;4.95;;;3.40;;
59008;SDS011;44794;42.652;23.318;2023-03-02T04:10:07;6.30;;;3.70;;
59008;SDS011;44794;42.652;23.318;2023-03-02T04:12:34;5.75;;;4.15;;
59008;SDS011;44794;42.652;23.318;2023-03-02T04:15:03;5.93;;;4.30;;
59008;SDS011;44794;42.652;23.318;2023-03-02T04:17:31;6.03;;;4.30;;
59008;SDS011;44794;42.652;23.318;2023-03-02T04:19:56;6.28;;;4.55;;
59008;SDS011;44794;42.652;23.318;2023-03-02T04:22:22;6.78;;;4.45;;
59008;SDS011;44794;42.652;23.318;2023-03-02T04:24:48;6.47;;;4.40;;
59008;SDS011;44794;42.652;23.318;2023-03-02T04:27:14;6.60;;;4.53;;
59008;SDS011;44794;42.652;23.318;2023-03-02T04:29:40;6.18;;;4.20;;
59008;SDS011;44794;42.652;23.318;2023-03-02T04:32:06;6.82;;;4.13;;
59008;SDS011;44794;42.652;23.318;2023-03-02T04:34:32;5.25;;;3.70;;
59008;SDS011;44794;42.652;23.318;2023-03-02T04:36:58;6.38;;;4.15;;
59008;SDS011;44794;42.652;23.318;2023-03-02T04:39:23;7.28;;;4.45;;
59008;SDS011;44794;42.652;23.318;2023-03-02T04:41:49;7.10;;;4.80;;
59008;SDS011;44794;42.652;23.318;2023-03-02T04:44:15;6.38;;;4.25;;
59008;SDS011;44794;42.652;23.318;2023-03-02T04:46:42;8.23;;;5.05;;
59008;SDS011;44794;42.652;23.318;2023-03-02T04:49:08;9.57;;;5.38;;
59008;SDS011;44794;42.652;23.318;2023-03-02T04:51:34;34.13;;;7.22;;
59008;SDS011;44794;42.652;23.318;2023-03-02T04:54:03;8.90;;;6.00;;
59008;SDS011;44794;42.652;23.318;2023-03-02T04:56:31;8.38;;;5.57;;
59008;SDS011;44794;42.652;23.318;2023-03-02T04:58:56;9.13;;;6.13;;
59008;SDS011;44794;42.652;23.318;2023-03-02T05:01:22;10.07;;;6.53;;
59008;SDS011;44794;42.652;23.318;2023-03-02T05:03:48;10.82;;;7.25;;
59008;SDS011;44794;42.652;23.318;2023-03-02T05:06:13;10.52;;;6.95;;
59008;SDS011;44794;42.652;23.318;2023-03-02T05:08:39;11.70;;;7.38;;
59008;SDS011;44794;42.652;23.318;2023-03-02T05:11:05;12.90;;;7.85;;
59008;SDS011;44794;42.652;23.318;2023-03-02T05:13:32;14.60;;;8.60;;
59008;SDS011;44794;42.652;23.318;2023-03-02T05:15:58;13.52;;;8.52;;
59008;SDS011;44794;42.652;23.318;2023-03-02T05:18:23;14.52;;;9.05;;
59008;SDS011;44794;42.652;23.318;2023-03-02T05:20:49;14.25;;;9.38;;
59008;SDS011;44794;42.652;23.318;2023-03-02T05:23:16;14.45;;;8.77;;
59008;SDS011;44794;42.652;23.318;2023-03-02T05:25:51;16.38;;;9.80;;
59008;SDS011;44794;42.652;23.318;2023-03-02T05:28:18;14.80;;;9.40;;
59008;SDS011;44794;42.652;23.318;2023-03-02T05:30:45;15.48;;;9.63;;
59008;SDS011;44794;42.652;23.318;2023-03-02T05:33:11;17.15;;;9.95;;
59008;SDS011;44794;42.652;23.318;2023-03-02T05:35:36;15.00;;;9.60;;
59008;SDS011;44794;42.652;23.318;2023-03-02T05:38:02;14.57;;;9.27;;
59008;SDS011;44794;42.652;23.318;2023-03-02T05:40:29;14.93;;;9.85;;
59008;SDS011;44794;42.652;23.318;2023-03-02T05:42:55;16.55;;;10.20;;
59008;SDS011;44794;42.652;23.318;2023-03-02T05:45:28;15.73;;;10.10;;
59008;SDS011;44794;42.652;23.318;2023-03-02T05:47:55;15.32;;;9.80;;
59008;SDS011;44794;42.652;23.318;2023-03-02T05:50:21;13.82;;;9.43;;
59008;SDS011;44794;42.652;23.318;2023-03-02T05:52:46;13.30;;;8.98;;
59008;SDS011;44794;42.652;23.318;2023-03-02T05:55:13;15.75;;;9.70;;
59008;SDS011;44794;42.652;23.318;2023-03-02T05:57:40;15.25;;;9.90;;
59008;SDS011;44794;42.652;23.318;2023-03-02T06:00:06;17.77;;;10.27;;
59008;SDS011;44794;42.652;23.318;2023-03-02T06:02:34;20.55;;;10.82;;
59008;SDS011;44794;42.652;23.318;2023-03-02T06:04:59;18.20;;;9.80;;
59008;SDS011;44794;42.652;23.318;2023-03-02T06:07:25;13.57;;;8.55;;
59008;SDS011;44794;42.652;23.318;2023-03-02T06:09:51;15.85;;;9.93;;
59008;SDS011;44794;42.652;23.318;2023-03-02T06:12:16;15.40;;;9.57;;
59008;SDS011;44794;42.652;23.318;2023-03-02T06:14:42;15.40;;;10.07;;
59008;SDS011;44794;42.652;23.318;2023-03-02T06:17:08;17.92;;;10.50;;
59008;SDS011;44794;42.652;23.318;2023-03-02T06:19:34;16.58;;;9.98;;
59008;SDS011;44794;42.652;23.318;2023-03-02T06:22:00;15.10;;;9.02;;
59008;SDS011;44794;42.652;23.318;2023-03-02T06:24:25;14.43;;;9.43;;
59008;SDS011;44794;42.652;23.318;2023-03-02T06:26:54;13.07;;;9.20;;
59008;SDS011;44794;42.652;23.318;2023-03-02T06:29:20;13.88;;;9.20;;
59008;SDS011;44794;42.652;23.318;2023-03-02T06:31:46;16.13;;;9.40;;
59008;SDS011;44794;42.652;23.318;2023-03-02T06:34:12;13.57;;;9.10;;
59008;SDS011;44794;42.652;23.318;2023-03-02T06:36:37;108.53;;;15.48;;
59008;SDS011;44794;42.652;23.318;2023-03-02T06:39:06;15.32;;;9.60;;
59008;SDS011;44794;42.652;23.318;2023-03-02T06:41:39;15.75;;;10.23;;
59008;SDS011;44794;42.652;23.318;2023-03-02T06:44:08;16.38;;;10.52;;
59008;SDS011;44794;42.652;23.318;2023-03-02T06:46:34;17.10;;;11.07;;
59008;SDS011;44794;42.652;23.318;2023-03-02T06:49:00;15.90;;;9.90;;
59008;SDS011;44794;42.652;23.318;2023-03-02T06:51:25;14.60;;;10.20;;
59008;SDS011;44794;42.652;23.318;2023-03-02T06:53:50;17.77;;;10.07;;
59008;SDS011;44794;42.652;23.318;2023-03-02T06:56:16;14.38;;;10.35;;
59008;SDS011;44794;42.652;23.318;2023-03-02T06:58:41;14.88;;;9.43;;
59008;SDS011;44794;42.652;23.318;2023-03-02T07:01:07;15.05;;;10.38;;
59008;SDS011;44794;42.652;23.318;2023-03-02T07:03:33;15.15;;;10.13;;
59008;SDS011;44794;42.652;23.318;2023-03-02T07:06:00;15.23;;;10.20;;
59008;SDS011;44794;42.652;23.318;2023-03-02T07:08:25;16.50;;;11.20;;
59008;SDS011;44794;42.652;23.318;2023-03-02T07:10:51;17.13;;;10.98;;
59008;SDS011;44794;42.652;23.318;2023-03-02T07:13:16;14.68;;;10.27;;
59008;SDS011;44794;42.652;23.318;2023-03-02T07:15:42;18.65;;;11.38;;
59008;SDS011;44794;42.652;23.318;2023-03-02T07:18:07;18.98;;;10.85;;
59008;SDS011;44794;42.652;23.318;2023-03-02T07:20:33;19.92;;;11.20;;
59008;SDS011;44794;42.652;23.318;2023-03-02T07:22:58;18.45;;;11.43;;
59008;SDS011;44794;42.652;23.318;2023-03-02T07:25:24;18.38;;;11.48;;
59008;SDS011;44794;42.652;23.318;2023-03-02T07:27:49;16.15;;;10.60;;
59008;SDS011;44794;42.652;23.318;2023-03-02T07:30:15;17.65;;;10.82;;
59008;SDS011;44794;42.652;23.318;2023-03-02T07:32:45;16.80;;;10.63;;
59008;SDS011;44794;42.652;23.318;2023-03-02T07:35:10;17.80;;;10.43;;
59008;SDS011;44794;42.652;23.318;2023-03-02T07:37:36;17.77;;;10.35;;
59008;SDS011;44794;42.652;23.318;2023-03-02T07:40:01;22.08;;;10.80;;
59008;SDS011;44794;42.652;23.318;2023-03-02T07:42:27;16.42;;;10.50;;
59008;SDS011;44794;42.652;23.318;2023-03-02T07:44:53;17.92;;;10.07;;
59008;SDS011;44794;42.652;23.318;2023-03-02T07:47:18;16.33;;;10.48;;
59008;SDS011;44794;42.652;23.318;2023-03-02T07:49:44;18.85;;;11.20;;
59008;SDS011;44794;42.652;23.318;2023-03-02T07:52:10;17.65;;;10.50;;
59008;SDS011;44794;42.652;23.318;2023-03-02T07:54:35;15.43;;;10.02;;
59008;SDS011;44794;42.652;23.318;2023-03-02T07:57:01;17.20;;;10.05;;
59008;SDS011;44794;42.652;23.318;2023-03-02T07:59:26;16.60;;;10.45;;
59008;SDS011;44794;42.652;23.318;2023-03-02T08:01:53;20.77;;;10.52;;
59008;SDS011;44794;42.652;23.318;2023-03-02T08:04:19;17.65;;;10.93;;
59008;SDS011;44794;42.652;23.318;2023-03-02T08:06:45;18.98;;;10.52;;
59008;SDS011;44794;42.652;23.318;2023-03-02T08:09:10;21.42;;;11.00;;
59008;SDS011;44794;42.652;23.318;2023-03-02T08:11:36;19.58;;;10.32;;
59008;SDS011;44794;42.652;23.318;2023-03-02T08:14:01;19.38;;;10.13;;
59008;SDS011;44794;42.652;23.318;2023-03-02T08:16:28;20.00;;;10.07;;
59008;SDS011;44794;42.652;23.318;2023-03-02T08:18:54;18.38;;;10.02;;
59008;SDS011;44794;42.652;23.318;2023-03-02T08:21:21;15.52;;;9.52;;
59008;SDS011;44794;42.652;23.318;2023-03-02T08:23:57;16.50;;;10.25;;
59008;SDS011;44794;42.652;23.318;2023-03-02T08:26:23;18.48;;;10.07;;
59008;SDS011;44794;42.652;23.318;2023-03-02T08:28:48;16.38;;;8.98;;
59008;SDS011;44794;42.652;23.318;2023-03-02T08:31:14;16.52;;;10.13;;
59008;SDS011;44794;42.652;23.318;2023-03-02T08:33:40;17.80;;;9.82;;
59008;SDS011;44794;42.652;23.318;2023-03-02T08:36:08;14.38;;;8.65;;
59008;SDS011;44794;42.652;23.318;2023-03-02T08:38:37;14.38;;;9.07;;
59008;SDS011;44794;42.652;23.318;2023-03-02T08:41:06;15.25;;;9.43;;
59008;SDS011;44794;42.652;23.318;2023-03-02T08:43:34;14.05;;;8.40;;
59008;SDS011;44794;42.652;23.318;2023-03-02T08:46:00;16.23;;;9.82;;
59008;SDS011;44794;42.652;23.318;2023-03-02T08:48:26;16.08;;;9.68;;
59008;SDS011;44794;42.652;23.318;2023-03-02T08:50:56;14.18;;;9.80;;
59008;SDS011;44794;42.652;23.318;2023-03-02T08:53:26;16.35;;;9.13;;
59008;SDS011;44794;42.652;23.318;2023-03-02T08:55:53;16.40;;;10.30;;
59008;SDS011;44794;42.652;23.318;2023-03-02T08:58:18;17.88;;;10.50;;
59008;SDS011;44794;42.652;23.318;2023-03-02T09:00:44;16.90;;;10.48;;
59008;SDS011;44794;42.652;23.318;2023-03-02T09:03:10;16.65;;;9.95;;
59008;SDS011;44794;42.652;23.318;2023-03-02T09:05:36;17.40;;;10.85;;
59008;SDS011;44794;42.652;23.318;2023-03-02T09:08:02;14.57;;;9.55;;
59008;SDS011;44794;42.652;23.318;2023-03-02T09:10:28;16.08;;;10.13;;
59008;SDS011;44794;42.652;23.318;2023-03-02T09:12:54;17.15;;;10.70;;
59008;SDS011;44794;42.652;23.318;2023-03-02T09:15:19;15.73;;;10.13;;
59008;SDS011;44794;42.652;23.318;2023-03-02T09:17:45;17.05;;;10.00;;
59008;SDS011;44794;42.652;23.318;2023-03-02T09:20:10;17.00;;;10.50;;
59008;SDS011;44794;42.652;23.318;2023-03-02T09:22:36;16.02;;;10.32;;
59008;SDS011;44794;42.652;23.318;2023-03-02T09:25:02;14.48;;;10.07;;
59008;SDS011;44794;42.652;23.318;2023-03-02T09:27:29;16.70;;;10.35;;
59008;SDS011;44794;42.652;23.318;2023-03-02T09:29:55;19.73;;;10.48;;
59008;SDS011;44794;42.652;23.318;2023-03-02T09:32:20;15.88;;;10.02;;
59008;SDS011;44794;42.652;23.318;2023-03-02T09:34:46;16.02;;;10.82;;
59008;SDS011;44794;42.652;23.318;2023-03-02T09:37:12;13.10;;;10.13;;
59008;SDS011;44794;42.652;23.318;2023-03-02T09:39:37;13.55;;;8.63;;
59008;SDS011;44794;42.652;23.318;2023-03-02T09:42:28;15.02;;;9.05;;
59008;SDS011;44794;42.652;23.318;2023-03-02T09:45:14;13.45;;;9.35;;
59008;SDS011;44794;42.652;23.318;2023-03-02T09:47:49;12.93;;;9.00;;
59008;SDS011;44794;42.652;23.318;2023-03-02T09:50:34;12.88;;;8.95;;
59008;SDS011;44794;42.652;23.318;2023-03-02T09:56:14;14.10;;;9.10;;
59008;SDS011;44794;42.652;23.318;2023-03-02T09:58:44;14.63;;;9.55;;
59008;SDS011;44794;42.652;23.318;2023-03-02T10:01:31;15.25;;;9.52;;
59008;SDS011;44794;42.652;23.318;2023-03-02T10:04:35;15.13;;;9.75;;
59008;SDS011;44794;42.652;23.318;2023-03-02T10:07:11;16.08;;;9.18;;
59008;SDS011;44794;42.652;23.318;2023-03-02T10:09:40;23.42;;;9.73;;
59008;SDS011;44794;42.652;23.318;2023-03-02T10:20:27;17.13;;;9.25;;
59008;SDS011;44794;42.652;23.318;2023-03-02T10:23:15;14.35;;;8.63;;
59008;SDS011;44794;42.652;23.318;2023-03-02T10:26:05;13.93;;;9.60;;
59008;SDS011;44794;42.652;23.318;2023-03-02T10:28:33;11.55;;;8.35;;
59008;SDS011;44794;42.652;23.318;2023-03-02T10:31:07;12.60;;;8.15;;
59008;SDS011;44794;42.652;23.318;2023-03-02T10:33:37;10.82;;;7.53;;
59008;SDS011;44794;42.652;23.318;2023-03-02T10:36:11;8.48;;;6.63;;
59008;SDS011;44794;42.652;23.318;2023-03-02T10:38:46;11.25;;;7.50;;
59008;SDS011;44794;42.652;23.318;2023-03-02T10:41:14;11.25;;;7.38;;
59008;SDS011;44794;42.652;23.318;2023-03-02T10:43:57;11.63;;;7.35;;
59008;SDS011;44794;42.652;23.318;2023-03-02T10:46:37;12.23;;;7.90;;
59008;SDS011;44794;42.652;23.318;2023-03-02T10:49:17;10.45;;;7.30;;
59008;SDS011;44794;42.652;23.318;2023-03-02T10:51:53;10.57;;;7.75;;
59008;SDS011;44794;42.652;23.318;2023-03-02T10:54:31;11.98;;;6.90;;
59008;SDS011;44794;42.652;23.318;2023-03-02T10:56:59;14.05;;;6.90;;
59008;SDS011;44794;42.652;23.318;2023-03-02T11:02:18;10.98;;;7.30;;
59008;SDS011;44794;42.652;23.318;2023-03-02T11:04:55;11.07;;;7.10;;
59008;SDS011;44794;42.652;23.318;2023-03-02T11:07:22;9.65;;;6.80;;
59008;SDS011;44794;42.652;23.318;2023-03-02T11:09:58;11.50;;;6.80;;
59008;SDS011;44794;42.652;23.318;2023-03-02T11:12:26;9.85;;;7.13;;
59008;SDS011;44794;42.652;23.318;2023-03-02T11:15:00;9.48;;;7.20;;
59008;SDS011;44794;42.652;23.318;2023-03-02T11:17:38;10.07;;;6.07;;
59008;SDS011;44794;42.652;23.318;2023-03-02T11:20:08;10.68;;;6.90;;
59008;SDS011;44794;42.652;23.318;2023-03-02T11:25:34;8.15;;;5.68;;
59008;SDS011;44794;42.652;23.318;2023-03-02T11:30:50;11.32;;;7.03;;
59008;SDS011;44794;42.652;23.318;2023-03-02T11:33:26;11.18;;;7.32;;
59008;SDS011;44794;42.652;23.318;2023-03-02T11:36:08;10.98;;;7.30;;
59008;SDS011;44794;42.652;23.318;2023-03-02T11:38:41;17.98;;;7.47;;
59008;SDS011;44794;42.652;23.318;2023-03-02T11:43:58;11.52;;;6.57;;
59008;SDS011;44794;42.652;23.318;2023-03-02T11:46:28;11.52;;;6.78;;
59008;SDS011;44794;42.652;23.318;2023-03-02T11:48:56;12.43;;;6.93;;
59008;SDS011;44794;42.652;23.318;2023-03-02T11:51:28;11.52;;;7.28;;
59008;SDS011;44794;42.652;23.318;2023-03-02T11:53:58;9.85;;;6.70;;
59008;SDS011;44794;42.652;23.318;2023-03-02T11:56:28;9.35;;;6.80;;
59008;SDS011;44794;42.652;23.318;2023-03-02T11:58:59;11.52;;;6.78;;
59008;SDS011;44794;42.652;23.318;2023-03-02T12:01:32;9.38;;;6.53;;
59008;SDS011;44794;42.652;23.318;2023-03-02T12:04:07;11.35;;;7.32;;
59008;SDS011;44794;42.652;23.318;2023-03-02T12:06:37;9.98;;;6.78;;
59008;SDS011;44794;42.652;23.318;2023-03-02T12:09:24;11.20;;;6.90;;
59008;SDS011;44794;42.652;23.318;2023-03-02T12:14:39;11.15;;;7.10;;
59008;SDS011;44794;42.652;23.318;2023-03-02T12:17:51;9.85;;;6.55;;
59008;SDS011;44794;42.652;23.318;2023-03-02T12:19:53;11.85;;;7.15;;
59008;SDS011;44794;42.652;23.318;2023-03-02T12:22:30;11.50;;;6.97;;
59008;SDS011;44794;42.652;23.318;2023-03-02T12:25:23;8.75;;;6.82;;
59008;SDS011;44794;42.652;23.318;2023-03-02T12:27:52;12.30;;;6.90;;
59008;SDS011;44794;42.652;23.318;2023-03-02T12:30:23;9.48;;;6.63;;
59008;SDS011;44794;42.652;23.318;2023-03-02T12:32:58;10.77;;;7.05;;
59008;SDS011;44794;42.652;23.318;2023-03-02T12:35:24;12.65;;;6.55;;
59008;SDS011;44794;42.652;23.318;2023-03-02T12:37:54;10.30;;;6.88;;
59008;SDS011;44794;42.652;23.318;2023-03-02T12:51:56;12.82;;;7.82;;
59008;SDS011;44794;42.652;23.318;2023-03-02T12:54:27;10.00;;;7.20;;
59008;SDS011;44794;42.652;23.318;2023-03-02T12:57:27;8.43;;;6.45;;
59008;SDS011;44794;42.652;23.318;2023-03-02T12:59:53;10.50;;;6.68;;
59008;SDS011;44794;42.652;23.318;2023-03-02T13:02:31;11.73;;;6.00;;
59008;SDS011;44794;42.652;23.318;2023-03-02T13:05:05;13.45;;;8.27;;
59008;SDS011;44794;42.652;23.318;2023-03-02T13:07:37;13.48;;;7.53;;
59008;SDS011;44794;42.652;23.318;2023-03-02T13:10:48;14.48;;;8.13;;
59008;SDS011;44794;42.652;23.318;2023-03-02T13:12:56;9.95;;;6.63;;
59008;SDS011;44794;42.652;23.318;2023-03-02T13:15:22;11.38;;;7.10;;
59008;SDS011;44794;42.652;23.318;2023-03-02T13:17:53;10.38;;;6.97;;
59008;SDS011;44794;42.652;23.318;2023-03-02T13:20:20;12.70;;;7.20;;
59008;SDS011;44794;42.652;23.318;2023-03-02T13:22:48;11.52;;;7.03;;
59008;SDS011;44794;42.652;23.318;2023-03-02T13:25:20;11.63;;;7.00;;
59008;SDS011;44794;42.652;23.318;2023-03-02T13:27:51;12.05;;;6.60;;
59008;SDS011;44794;42.652;23.318;2023-03-02T13:30:25;9.48;;;6.25;;
59008;SDS011;44794;42.652;23.318;2023-03-02T13:32:54;11.30;;;6.88;;
59008;SDS011;44794;42.652;23.318;2023-03-02T13:35:25;11.27;;;6.95;;
59008;SDS011;44794;42.652;23.318;2023-03-02T13:38:00;11.70;;;8.05;;
59008;SDS011;44794;42.652;23.318;2023-03-02T13:40:46;13.68;;;8.90;;
59008;SDS011;44794;42.652;23.318;2023-03-02T13:48:28;12.60;;;7.47;;
59008;SDS011;44794;42.652;23.318;2023-03-02T13:53:38;13.25;;;8.60;;
59008;SDS011;44794;42.652;23.318;2023-03-02T13:56:07;16.83;;;9.57;;
59008;SDS011;44794;42.652;23.318;2023-03-02T13:58:38;12.00;;;7.97;;
59008;SDS011;44794;42.652;23.318;2023-03-02T14:01:05;15.93;;;8.52;;
59008;SDS011;44794;42.652;23.318;2023-03-02T14:03:31;14.50;;;9.38;;
59008;SDS011;44794;42.652;23.318;2023-03-02T14:05:57;14.68;;;8.75;;
59008;SDS011;44794;42.652;23.318;2023-03-02T14:08:24;14.27;;;9.75;;
59008;SDS011;44794;42.652;23.318;2023-03-02T14:10:53;17.83;;;10.50;;
59008;SDS011;44794;42.652;23.318;2023-03-02T14:13:39;16.70;;;9.55;;
59008;SDS011;44794;42.652;23.318;2023-03-02T14:16:11;14.35;;;9.77;;
59008;SDS011;44794;42.652;23.318;2023-03-02T14:18:40;14.88;;;9.95;;
59008;SDS011;44794;42.652;23.318;2023-03-02T14:21:17;16.63;;;10.73;;
59008;SDS011;44794;42.652;23.318;2023-03-02T14:23:44;18.23;;;10.60;;
59008;SDS011;44794;42.652;23.318;2023-03-02T14:29:05;20.25;;;12.25;;
59008;SDS011;44794;42.652;23.318;2023-03-02T14:31:40;20.60;;;12.15;;
59008;SDS011;44794;42.652;23.318;2023-03-02T14:34:09;25.98;;;12.68;;
59008;SDS011;44794;42.652;23.318;2023-03-02T14:36:37;19.27;;;11.88;;
59008;SDS011;44794;42.652;23.318;2023-03-02T14:39:04;22.70;;;12.20;;
59008;SDS011;44794;42.652;23.318;2023-03-02T14:41:38;21.02;;;13.18;;
59008;SDS011;44794;42.652;23.318;2023-03-02T14:44:08;21.23;;;12.45;;
59008;SDS011;44794;42.652;23.318;2023-03-02T14:46:35;21.80;;;12.35;;
59008;SDS011;44794;42.652;23.318;2023-03-02T14:49:01;20.75;;;12.38;;
59008;SDS011;44794;42.652;23.318;2023-03-02T14:51:29;20.85;;;11.95;;
59008;SDS011;44794;42.652;23.318;2023-03-02T14:53:56;19.40;;;10.93;;
59008;SDS011;44794;42.652;23.318;2023-03-02T14:56:25;20.67;;;11.40;;
59008;SDS011;44794;42.652;23.318;2023-03-02T14:58:51;17.38;;;11.43;;
59008;SDS011;44794;42.652;23.318;2023-03-02T15:01:18;19.73;;;11.55;;
59008;SDS011;44794;42.652;23.318;2023-03-02T15:03:44;19.90;;;11.00;;
59008;SDS011;44794;42.652;23.318;2023-03-02T15:06:26;18.25;;;10.88;;
59008;SDS011;44794;42.652;23.318;2023-03-02T15:08:57;21.92;;;11.48;;
59008;SDS011;44794;42.652;23.318;2023-03-02T15:11:24;20.15;;;11.70;;
59008;SDS011;44794;42.652;23.318;2023-03-02T15:13:51;20.33;;;11.52;;
59008;SDS011;44794;42.652;23.318;2023-03-02T15:16:18;20.10;;;11.20;;
59008;SDS011;44794;42.652;23.318;2023-03-02T15:18:44;22.40;;;11.85;;
59008;SDS011;44794;42.652;23.318;2023-03-02T15:21:14;20.42;;;10.90;;
59008;SDS011;44794;42.652;23.318;2023-03-02T15:23:44;17.48;;;10.52;;
59008;SDS011;44794;42.652;23.318;2023-03-02T15:26:11;18.30;;;10.82;;
59008;SDS011;44794;42.652;23.318;2023-03-02T15:28:37;19.83;;;11.43;;